createdAt,value
2017-09-27T00:00:37.225Z,17.16
2017-09-27T00:01:49.883Z,17.04
2017-09-27T00:03:02.537Z,17.06
2017-09-27T00:04:14.728Z,17.03
2017-09-27T00:05:27.465Z,17.06
2017-09-27T00:06:40.194Z,17.04
2017-09-27T00:07:52.865Z,17.07
2017-09-27T00:09:06.088Z,17.12
2017-09-27T00:10:19.278Z,17.06
2017-09-27T00:11:30.918Z,17.06
2017-09-27T00:12:43.116Z,17.06
2017-09-27T00:13:56.277Z,17.06
2017-09-27T00:15:07.905Z,17.04
2017-09-27T00:16:20.555Z,17.04
2017-09-27T00:17:32.768Z,17.12
2017-09-27T00:18:45.127Z,17.06
2017-09-27T00:19:57.818Z,17.03
2017-09-27T00:21:11.055Z,17.01
2017-09-27T00:22:23.715Z,16.96
2017-09-27T00:23:36.911Z,16.94
2017-09-27T00:24:50.088Z,16.91
2017-09-27T00:26:02.267Z,16.97
2017-09-27T00:27:14.919Z,17.01
2017-09-27T00:28:27.608Z,16.94
2017-09-27T00:29:39.242Z,16.94
2017-09-27T00:30:51.443Z,16.94
2017-09-27T00:32:04.639Z,17
2017-09-27T00:33:17.320Z,16.93
2017-09-27T00:34:30.010Z,16.98
2017-09-27T00:35:42.730Z,17.01
2017-09-27T00:36:54.398Z,17.06
2017-09-27T00:38:07.602Z,17
2017-09-27T00:39:20.786Z,17.06
2017-09-27T00:40:33.945Z,17.04
2017-09-27T00:41:45.899Z,17
2017-09-27T00:42:58.212Z,16.97
2017-09-27T00:44:11.346Z,17
2017-09-27T00:45:23.989Z,16.96
2017-09-27T00:46:36.892Z,16.98
2017-09-27T00:47:50.428Z,16.89
2017-09-27T00:49:04.527Z,17.03
2017-09-27T00:50:17.856Z,17
2017-09-27T00:51:31.316Z,16.94
2017-09-27T00:52:45.350Z,16.93
2017-09-27T00:53:58.619Z,16.88
2017-09-27T00:55:11.984Z,16.89
2017-09-27T00:56:24.947Z,16.88
2017-09-27T00:57:38.430Z,16.88
2017-09-27T00:58:52.009Z,16.88
2017-09-27T01:00:05.322Z,16.93
2017-09-27T01:01:18.528Z,16.93
2017-09-27T01:02:32.218Z,16.91
2017-09-27T01:03:45.656Z,16.82
2017-09-27T01:04:59.307Z,16.85
2017-09-27T01:06:11.894Z,16.88
2017-09-27T01:07:24.759Z,16.83
2017-09-27T01:08:37.419Z,16.85
2017-09-27T01:09:50.107Z,16.86
2017-09-27T01:11:02.785Z,16.78
2017-09-27T01:12:15.987Z,16.86
2017-09-27T01:13:27.666Z,16.85
2017-09-27T01:14:41.102Z,16.83
2017-09-27T01:15:53.803Z,16.88
2017-09-27T01:17:07.043Z,16.78
2017-09-27T01:18:19.684Z,16.89
2017-09-27T01:19:32.350Z,16.85
2017-09-27T01:20:44.531Z,16.88
2017-09-27T01:21:56.184Z,16.86
2017-09-27T01:23:09.216Z,16.86
2017-09-27T01:24:22.781Z,16.85
2017-09-27T01:25:36.417Z,16.85
2017-09-27T01:26:49.623Z,16.96
2017-09-27T01:28:01.800Z,16.86
2017-09-27T01:29:13.972Z,16.81
2017-09-27T01:30:26.640Z,16.88
2017-09-27T01:31:39.837Z,16.83
2017-09-27T01:32:52.212Z,16.86
2017-09-27T01:34:04.392Z,16.78
2017-09-27T01:35:17.036Z,16.79
2017-09-27T01:36:30.528Z,16.73
2017-09-27T01:37:43.731Z,16.78
2017-09-27T01:38:56.010Z,16.85
2017-09-27T01:40:09.690Z,16.83
2017-09-27T01:41:21.860Z,16.73
2017-09-27T01:42:34.515Z,16.7
2017-09-27T01:43:47.735Z,16.75
2017-09-27T01:45:00.976Z,16.75
2017-09-27T01:46:13.702Z,16.89
2017-09-27T01:47:26.558Z,16.86
2017-09-27T01:48:39.252Z,16.83
2017-09-27T01:49:51.890Z,16.93
2017-09-27T01:51:04.085Z,16.88
2017-09-27T01:52:15.883Z,16.83
2017-09-27T01:53:28.820Z,16.91
2017-09-27T01:54:42.714Z,16.88
2017-09-27T01:55:56.422Z,16.82
2017-09-27T01:57:09.135Z,16.78
2017-09-27T01:58:21.788Z,16.79
2017-09-27T01:59:33.951Z,16.91
2017-09-27T02:00:46.109Z,16.89
2017-09-27T02:01:59.281Z,16.83
2017-09-27T02:03:12.520Z,16.86
2017-09-27T02:04:25.716Z,16.82
2017-09-27T02:05:38.924Z,16.83
2017-09-27T02:06:52.105Z,16.83
2017-09-27T02:08:04.739Z,16.85
2017-09-27T02:09:17.406Z,16.75
2017-09-27T02:10:30.837Z,16.71
2017-09-27T02:11:44.286Z,16.79
2017-09-27T02:12:57.666Z,16.85
2017-09-27T02:14:10.773Z,16.85
2017-09-27T02:15:24.568Z,16.86
2017-09-27T02:16:37.362Z,16.82
2017-09-27T02:17:50.034Z,16.88
2017-09-27T02:19:03.421Z,16.82
2017-09-27T02:20:17.474Z,16.82
2017-09-27T02:21:30.091Z,16.96
2017-09-27T02:22:43.351Z,16.83
2017-09-27T02:23:55.508Z,16.83
2017-09-27T02:25:08.743Z,16.83
2017-09-27T02:26:21.432Z,16.85
2017-09-27T02:27:34.113Z,16.89
2017-09-27T02:28:46.784Z,16.85
2017-09-27T02:29:59.462Z,16.97
2017-09-27T02:31:11.651Z,16.85
2017-09-27T02:32:24.855Z,16.88
2017-09-27T02:33:38.064Z,16.94
2017-09-27T02:34:50.735Z,16.94
2017-09-27T02:36:03.942Z,16.97
2017-09-27T02:37:16.116Z,16.94
2017-09-27T02:38:28.799Z,17
2017-09-27T02:39:41.470Z,16.96
2017-09-27T02:40:54.156Z,16.94
2017-09-27T02:42:06.820Z,16.88
2017-09-27T02:43:19.525Z,16.89
2017-09-27T02:44:32.158Z,16.86
2017-09-27T02:45:45.365Z,16.94
2017-09-27T02:46:58.533Z,16.85
2017-09-27T02:48:10.162Z,16.83
2017-09-27T02:49:22.807Z,16.93
2017-09-27T02:50:36.065Z,16.96
2017-09-27T02:51:48.740Z,16.85
2017-09-27T02:53:01.422Z,16.86
2017-09-27T02:54:14.600Z,16.83
2017-09-27T02:55:27.275Z,16.83
2017-09-27T02:56:39.426Z,16.88
2017-09-27T02:57:52.125Z,16.88
2017-09-27T02:59:04.814Z,16.85
2017-09-27T03:00:17.464Z,16.81
2017-09-27T03:01:30.665Z,16.86
2017-09-27T03:02:43.834Z,16.93
2017-09-27T03:03:56.011Z,16.85
2017-09-27T03:05:09.198Z,16.82
2017-09-27T03:06:22.366Z,16.86
2017-09-27T03:07:35.536Z,16.86
2017-09-27T03:08:48.755Z,16.82
2017-09-27T03:10:01.952Z,16.81
2017-09-27T03:11:14.695Z,16.71
2017-09-27T03:12:27.383Z,16.75
2017-09-27T03:13:40.053Z,16.7
2017-09-27T03:14:52.801Z,16.81
2017-09-27T03:16:04.951Z,16.66
2017-09-27T03:17:17.677Z,16.68
2017-09-27T03:18:30.360Z,16.73
2017-09-27T03:19:43.060Z,16.67
2017-09-27T03:20:56.265Z,16.67
2017-09-27T03:22:08.953Z,16.66
2017-09-27T03:23:22.168Z,16.63
2017-09-27T03:24:34.841Z,16.66
2017-09-27T03:25:47.473Z,16.63
2017-09-27T03:26:59.084Z,16.57
2017-09-27T03:28:12.298Z,16.49
2017-09-27T03:29:25.456Z,16.49
2017-09-27T03:30:38.737Z,16.57
2017-09-27T03:31:51.538Z,16.49
2017-09-27T03:33:04.179Z,16.49
2017-09-27T03:34:16.805Z,16.5
2017-09-27T03:35:29.999Z,16.49
2017-09-27T03:36:42.667Z,16.49
2017-09-27T03:37:55.065Z,16.6
2017-09-27T03:39:08.046Z,16.58
2017-09-27T03:40:20.773Z,16.63
2017-09-27T03:41:34.002Z,16.58
2017-09-27T03:42:47.203Z,16.5
2017-09-27T03:43:59.899Z,16.61
2017-09-27T03:45:13.067Z,16.63
2017-09-27T03:46:25.773Z,16.52
2017-09-27T03:47:38.979Z,16.48
2017-09-27T03:48:52.213Z,16.46
2017-09-27T03:50:05.402Z,16.52
2017-09-27T03:51:18.594Z,16.49
2017-09-27T03:52:30.787Z,16.52
2017-09-27T03:53:43.974Z,16.56
2017-09-27T03:54:56.121Z,16.57
2017-09-27T03:56:09.320Z,16.58
2017-09-27T03:57:21.499Z,16.61
2017-09-27T03:58:34.724Z,16.57
2017-09-27T03:59:46.896Z,16.58
2017-09-27T04:00:59.582Z,16.58
2017-09-27T04:02:12.768Z,16.58
2017-09-27T04:03:24.900Z,16.53
2017-09-27T04:04:38.118Z,16.46
2017-09-27T04:05:50.278Z,16.52
2017-09-27T04:07:03.529Z,16.56
2017-09-27T04:08:16.186Z,16.46
2017-09-27T04:09:29.418Z,16.56
2017-09-27T04:10:42.097Z,16.5
2017-09-27T04:11:55.360Z,16.5
2017-09-27T04:13:08.570Z,16.56
2017-09-27T04:14:20.692Z,16.49
2017-09-27T04:15:33.366Z,16.45
2017-09-27T04:16:46.035Z,16.48
2017-09-27T04:17:58.694Z,16.5
2017-09-27T04:19:11.395Z,16.46
2017-09-27T04:20:24.106Z,16.48
2017-09-27T04:21:37.303Z,16.45
2017-09-27T04:22:49.991Z,16.46
2017-09-27T04:24:02.158Z,16.45
2017-09-27T04:25:15.374Z,16.34
2017-09-27T04:26:27.052Z,16.31
2017-09-27T04:27:39.709Z,16.42
2017-09-27T04:28:52.406Z,16.3
2017-09-27T04:30:05.617Z,16.34
2017-09-27T04:31:18.293Z,16.24
2017-09-27T04:32:30.981Z,16.31
2017-09-27T04:33:42.631Z,16.3
2017-09-27T04:34:54.803Z,16.39
2017-09-27T04:36:08.025Z,16.43
2017-09-27T04:37:20.721Z,16.35
2017-09-27T04:38:33.913Z,16.28
2017-09-27T04:39:47.122Z,16.41
2017-09-27T04:40:58.748Z,16.2
2017-09-27T04:42:11.905Z,16.3
2017-09-27T04:43:25.119Z,16.23
2017-09-27T04:44:38.338Z,16.21
2017-09-27T04:45:51.519Z,16.24
2017-09-27T04:47:04.663Z,16.24
2017-09-27T04:48:16.766Z,16.23
2017-09-27T04:49:29.415Z,16.24
2017-09-27T04:50:42.078Z,16.17
2017-09-27T04:51:54.259Z,16.15
2017-09-27T04:53:06.908Z,16.07
2017-09-27T04:54:19.575Z,16.11
2017-09-27T04:55:32.759Z,16.08
2017-09-27T04:56:45.991Z,16.09
2017-09-27T04:57:59.202Z,16.11
2017-09-27T04:59:11.873Z,16.21
2017-09-27T05:00:25.061Z,16.12
2017-09-27T05:01:37.778Z,16.2
2017-09-27T05:02:50.997Z,16.14
2017-09-27T05:04:03.133Z,16.2
2017-09-27T05:05:16.326Z,16.17
2017-09-27T05:06:29.008Z,16.11
2017-09-27T05:07:42.231Z,16.11
2017-09-27T05:08:55.382Z,16.01
2017-09-27T05:10:08.042Z,15.97
2017-09-27T05:11:20.730Z,16.14
2017-09-27T05:12:33.908Z,16.04
2017-09-27T05:13:46.567Z,16.12
2017-09-27T05:14:58.745Z,16.2
2017-09-27T05:16:11.491Z,16.2
2017-09-27T05:17:23.151Z,16.11
2017-09-27T05:18:35.848Z,16.04
2017-09-27T05:19:48.510Z,16.04
2017-09-27T05:21:01.182Z,16.02
2017-09-27T05:22:13.873Z,16.04
2017-09-27T05:23:26.039Z,16.05
2017-09-27T05:24:39.228Z,16.01
2017-09-27T05:25:51.894Z,16.04
2017-09-27T05:27:04.040Z,16.04
2017-09-27T05:28:17.250Z,16.05
2017-09-27T05:29:29.928Z,16.09
2017-09-27T05:30:43.151Z,15.97
2017-09-27T05:31:56.321Z,16.07
2017-09-27T05:33:09.025Z,16.04
2017-09-27T05:34:21.687Z,16.08
2017-09-27T05:35:34.390Z,16.07
2017-09-27T05:36:47.085Z,16.05
2017-09-27T05:37:59.753Z,16
2017-09-27T05:39:12.935Z,15.94
2017-09-27T05:40:25.659Z,16.01
2017-09-27T05:41:38.856Z,16
2017-09-27T05:42:51.031Z,16.01
2017-09-27T05:44:03.198Z,15.96
2017-09-27T05:45:15.373Z,15.87
2017-09-27T05:46:28.053Z,15.97
2017-09-27T05:47:41.233Z,16
2017-09-27T05:48:54.417Z,16.01
2017-09-27T05:50:07.668Z,16.01
2017-09-27T05:51:20.838Z,16.04
2017-09-27T05:52:32.977Z,16
2017-09-27T05:53:45.630Z,16.02
2017-09-27T05:54:58.313Z,15.92
2017-09-27T05:56:10.455Z,15.9
2017-09-27T05:57:23.616Z,15.89
2017-09-27T06:29:40.032Z,15.35
2017-09-27T06:30:52.731Z,15.32
2017-09-27T06:32:04.899Z,15.35
2017-09-27T06:33:17.067Z,15.36
2017-09-27T06:34:29.750Z,15.41
2017-09-27T06:35:42.448Z,15.41
2017-09-27T06:36:54.583Z,15.43
2017-09-27T06:38:07.752Z,15.44
2017-09-27T06:39:20.487Z,15.51
2017-09-27T06:40:33.146Z,15.47
2017-09-27T06:41:44.900Z,15.39
2017-09-27T06:42:58.208Z,15.49
2017-09-27T06:44:10.358Z,15.41
2017-09-27T06:45:23.031Z,15.39
2017-09-27T06:46:36.211Z,15.53
2017-09-27T06:47:48.865Z,15.41
2017-09-27T06:49:01.565Z,15.5
2017-09-27T06:50:14.764Z,15.43
2017-09-27T06:51:27.439Z,15.51
2017-09-27T06:52:40.094Z,15.39
2017-09-27T06:53:52.772Z,15.39
2017-09-27T06:55:05.978Z,15.41
2017-09-27T06:56:19.196Z,15.41
2017-09-27T06:57:32.388Z,15.38
2017-09-27T06:58:45.546Z,15.41
2017-09-27T06:59:58.740Z,15.51
2017-09-27T07:01:11.431Z,15.49
2017-09-27T07:02:24.637Z,15.54
2017-09-27T07:03:37.829Z,15.53
2017-09-27T07:04:50.985Z,15.56
2017-09-27T07:06:03.679Z,15.57
2017-09-27T07:07:16.287Z,15.53
2017-09-27T07:08:29.478Z,15.43
2017-09-27T07:09:42.107Z,15.44
2017-09-27T07:10:54.781Z,15.39
2017-09-27T07:12:07.450Z,15.47
2017-09-27T07:13:20.133Z,15.36
2017-09-27T07:14:33.304Z,15.44
2017-09-27T07:15:45.961Z,15.41
2017-09-27T07:16:59.121Z,15.29
2017-09-27T07:18:11.815Z,15.34
2017-09-27T07:19:25.010Z,15.27
2017-09-27T07:20:38.205Z,15.23
2017-09-27T07:21:51.407Z,15.17
2017-09-27T07:23:04.601Z,15.25
2017-09-27T07:24:17.270Z,15.19
2017-09-27T07:25:30.491Z,15.2
2017-09-27T07:26:43.699Z,15.13
2017-09-27T07:27:56.881Z,15.19
2017-09-27T07:29:09.560Z,14.99
2017-09-27T07:30:21.724Z,14.99
2017-09-27T07:31:34.942Z,15.09
2017-09-27T07:32:47.622Z,15.07
2017-09-27T07:33:59.782Z,15.19
2017-09-27T07:35:12.963Z,15.23
2017-09-27T07:36:26.148Z,15.23
2017-09-27T07:37:38.808Z,15.21
2017-09-27T07:38:51.475Z,15.19
2017-09-27T07:40:03.609Z,15.19
2017-09-27T07:41:16.266Z,15.14
2017-09-27T07:42:29.475Z,15.17
2017-09-27T07:43:42.651Z,15.19
2017-09-27T07:44:55.332Z,15.23
2017-09-27T07:46:08.654Z,15.29
2017-09-27T07:47:21.828Z,15.27
2017-09-27T07:48:34.520Z,15.31
2017-09-27T07:49:46.699Z,15.32
2017-09-27T07:50:59.402Z,15.19
2017-09-27T07:52:11.556Z,15.34
2017-09-27T07:53:24.743Z,15.28
2017-09-27T07:54:37.950Z,15.29
2017-09-27T07:55:50.662Z,15.35
2017-09-27T07:57:02.823Z,15.28
2017-09-27T07:58:15.984Z,15.23
2017-09-27T07:59:28.671Z,15.23
2017-09-27T08:00:41.338Z,15.16
2017-09-27T08:01:54.014Z,15.16
2017-09-27T08:03:07.217Z,15.16
2017-09-27T08:04:20.395Z,15.13
2017-09-27T08:05:33.615Z,15.19
2017-09-27T08:06:46.304Z,15.14
2017-09-27T08:07:58.494Z,15.16
2017-09-27T08:09:11.162Z,15.23
2017-09-27T08:10:23.869Z,15.21
2017-09-27T08:11:37.076Z,15.29
2017-09-27T08:12:49.744Z,15.32
2017-09-27T08:14:02.926Z,15.28
2017-09-27T08:15:16.089Z,15.25
2017-09-27T08:16:28.761Z,15.21
2017-09-27T08:17:41.935Z,15.44
2017-09-27T08:18:54.087Z,15.31
2017-09-27T08:20:05.729Z,15.34
2017-09-27T08:21:18.444Z,15.44
2017-09-27T08:22:31.116Z,15.36
2017-09-27T08:23:43.770Z,15.27
2017-09-27T08:24:56.441Z,15.2
2017-09-27T08:26:09.632Z,15.29
2017-09-27T08:27:22.834Z,15.32
2017-09-27T08:28:34.994Z,15.23
2017-09-27T08:29:47.634Z,15.25
2017-09-27T08:31:00.879Z,15.21
2017-09-27T08:32:14.051Z,15.32
2017-09-27T08:33:27.170Z,15.39
2017-09-27T08:34:40.402Z,15.35
2017-09-27T08:35:53.594Z,15.34
2017-09-27T08:37:06.260Z,15.34
2017-09-27T08:38:18.409Z,15.41
2017-09-27T08:39:31.629Z,15.35
2017-09-27T08:40:44.283Z,15.32
2017-09-27T08:41:56.933Z,15.23
2017-09-27T08:43:10.189Z,15.23
2017-09-27T08:44:22.920Z,15.17
2017-09-27T08:45:36.126Z,15.13
2017-09-27T08:46:48.278Z,15.19
2017-09-27T08:48:00.952Z,15.17
2017-09-27T08:49:13.663Z,15.2
2017-09-27T08:50:26.367Z,15.21
2017-09-27T08:51:39.579Z,15.23
2017-09-27T08:52:52.261Z,15.11
2017-09-27T08:54:05.465Z,15.21
2017-09-27T08:55:18.677Z,15.19
2017-09-27T08:56:30.823Z,15.25
2017-09-27T08:57:44.060Z,15.21
2017-09-27T08:58:56.741Z,15.35
2017-09-27T09:00:08.398Z,15.35
2017-09-27T09:01:20.560Z,15.38
2017-09-27T09:02:33.784Z,15.44
2017-09-27T09:03:46.972Z,15.39
2017-09-27T09:04:59.669Z,15.47
2017-09-27T09:06:12.879Z,15.59
2017-09-27T09:07:26.101Z,15.54
2017-09-27T09:08:39.296Z,15.6
2017-09-27T09:09:52.519Z,15.6
2017-09-27T09:11:05.711Z,15.72
2017-09-27T09:12:18.874Z,15.75
2017-09-27T09:13:32.099Z,15.84
2017-09-27T09:14:45.283Z,15.93
2017-09-27T09:15:58.476Z,15.87
2017-09-27T09:17:11.107Z,15.9
2017-09-27T09:18:24.274Z,15.96
2017-09-27T09:19:37.443Z,16.04
2017-09-27T09:20:50.656Z,16.07
2017-09-27T09:22:03.396Z,16.04
2017-09-27T09:23:16.571Z,16.12
2017-09-27T09:24:29.258Z,16.23
2017-09-27T09:25:41.919Z,16.25
2017-09-27T09:26:55.108Z,16.46
2017-09-27T09:28:06.747Z,16.46
2017-09-27T09:29:19.417Z,16.43
2017-09-27T09:30:31.567Z,16.52
2017-09-27T09:31:44.753Z,16.53
2017-09-27T09:32:57.420Z,16.58
2017-09-27T09:34:09.576Z,16.7
2017-09-27T09:35:22.242Z,16.93
2017-09-27T09:36:34.947Z,17.11
2017-09-27T09:37:47.094Z,17.37
2017-09-27T09:38:59.783Z,17.66
2017-09-27T09:40:12.497Z,17.84
2017-09-27T09:41:24.652Z,18.05
2017-09-27T09:42:37.850Z,18.18
2017-09-27T09:43:50.515Z,18.35
2017-09-27T09:45:03.171Z,18.41
2017-09-27T09:46:16.375Z,18.52
2017-09-27T09:47:28.549Z,18.62
2017-09-27T09:48:39.656Z,18.66
2017-09-27T09:49:52.816Z,18.7
2017-09-27T09:51:05.497Z,18.8
2017-09-27T09:52:18.165Z,19.08
2017-09-27T09:53:30.302Z,19.13
2017-09-27T09:54:42.985Z,19.26
2017-09-27T09:55:55.708Z,19.43
2017-09-27T09:57:08.423Z,19.44
2017-09-27T09:58:21.135Z,19.56
2017-09-27T09:59:33.829Z,19.84
2017-09-27T10:00:47.040Z,20.06
2017-09-27T10:01:59.702Z,20.52
2017-09-27T10:03:12.399Z,20.76
2017-09-27T10:04:25.623Z,21.01
2017-09-27T10:05:37.832Z,21.06
2017-09-27T10:06:50.499Z,21.17
2017-09-27T10:08:03.208Z,21.28
2017-09-27T10:09:15.895Z,21.35
2017-09-27T10:10:29.096Z,21.52
2017-09-27T10:11:42.298Z,21.65
2017-09-27T10:12:54.986Z,21.77
2017-09-27T10:14:07.185Z,21.94
2017-09-27T10:15:19.880Z,22.03
2017-09-27T10:16:33.089Z,22.05
2017-09-27T10:17:46.253Z,22.05
2017-09-27T10:18:59.450Z,22.21
2017-09-27T10:20:43.326Z,22.46
2017-09-27T10:21:55.472Z,22.46
2017-09-27T10:23:08.202Z,22.46
2017-09-27T10:24:20.340Z,22.28
2017-09-27T10:25:33.555Z,22.33
2017-09-27T10:26:45.730Z,22.4
2017-09-27T10:27:58.956Z,22.24
2017-09-27T10:29:11.113Z,22.06
2017-09-27T10:30:23.312Z,22.02
2017-09-27T10:31:35.504Z,22.18
2017-09-27T10:32:47.706Z,22.15
2017-09-27T10:34:00.398Z,22.42
2017-09-27T10:35:12.591Z,22.67
2017-09-27T10:36:24.758Z,22.75
2017-09-27T10:37:37.937Z,22.86
2017-09-27T10:38:50.081Z,22.94
2017-09-27T10:40:01.765Z,23.09
2017-09-27T10:41:14.456Z,23.2
2017-09-27T10:42:27.631Z,23.25
2017-09-27T10:43:40.317Z,23.32
2017-09-27T10:44:52.495Z,23.07
2017-09-27T10:46:05.176Z,23.25
2017-09-27T10:47:17.885Z,23.05
2017-09-27T10:48:31.077Z,22.67
2017-09-27T10:49:43.796Z,22.47
2017-09-27T10:50:56.964Z,22.33
2017-09-27T10:52:10.187Z,22.36
2017-09-27T10:53:23.357Z,22.54
2017-09-27T10:54:35.014Z,22.75
2017-09-27T10:55:46.619Z,23.16
2017-09-27T10:56:59.848Z,23.39
2017-09-27T10:58:12.998Z,23.47
2017-09-27T10:59:25.164Z,23.43
2017-09-27T11:00:37.847Z,23.42
2017-09-27T11:01:51.066Z,23.16
2017-09-27T11:03:04.346Z,22.68
2017-09-27T11:04:17.578Z,22.43
2017-09-27T11:05:30.905Z,22.22
2017-09-27T11:06:43.609Z,22.2
2017-09-27T11:07:56.871Z,22.24
2017-09-27T11:09:10.078Z,22.47
2017-09-27T11:12:07.256Z,22.39
2017-09-27T11:13:19.981Z,22.4
2017-09-27T11:14:33.172Z,22.67
2017-09-27T11:15:46.371Z,22.52
2017-09-27T11:16:59.035Z,22.46
2017-09-27T11:18:12.224Z,22.37
2017-09-27T11:19:25.448Z,22.37
2017-09-27T11:20:38.642Z,22.58
2017-09-27T11:21:50.848Z,22.64
2017-09-27T11:23:04.052Z,22.57
2017-09-27T11:24:17.250Z,22.75
2017-09-27T11:25:30.561Z,22.73
2017-09-27T11:26:43.774Z,22.72
2017-09-27T11:27:55.438Z,22.75
2017-09-27T11:29:08.130Z,23.19
2017-09-27T11:30:21.307Z,23.69
2017-09-27T11:31:33.999Z,24.02
2017-09-27T11:35:01.175Z,23.7
2017-09-27T11:36:14.404Z,23.87
2017-09-27T11:37:27.115Z,23.88
2017-09-27T11:38:39.831Z,23.93
2017-09-27T11:39:53.074Z,23.84
2017-09-27T11:41:05.199Z,23.91
2017-09-27T11:42:18.603Z,24.22
2017-09-27T11:43:31.812Z,24.24
2017-09-27T11:44:45.021Z,23.87
2017-09-27T11:45:56.737Z,23.72
2017-09-27T11:47:08.952Z,23.83
2017-09-27T11:48:21.153Z,23.76
2017-09-27T11:49:34.579Z,24.24
2017-09-27T11:50:47.838Z,24.16
2017-09-27T11:52:00.515Z,24.46
2017-09-27T11:53:12.677Z,24.73
2017-09-27T11:54:25.363Z,24.57
2017-09-27T11:55:37.545Z,24.4
2017-09-27T11:56:50.203Z,24.16
2017-09-27T11:58:02.924Z,23.93
2017-09-27T11:59:15.642Z,24.13
2017-09-27T12:00:27.850Z,24.09
2017-09-27T12:01:41.079Z,24.37
2017-09-27T12:02:53.224Z,24.69
2017-09-27T12:04:05.879Z,25.23
2017-09-27T12:05:19.063Z,25.33
2017-09-27T12:06:31.752Z,25.42
2017-09-27T12:07:44.411Z,25.83
2017-09-27T12:08:57.132Z,25.92
2017-09-27T12:10:09.823Z,25.83
2017-09-27T12:11:23.009Z,25.58
2017-09-27T12:12:36.195Z,25.39
2017-09-27T12:13:47.820Z,25.23
2017-09-27T12:14:59.994Z,24.8
2017-09-27T12:16:12.132Z,24.22
2017-09-27T12:17:25.508Z,23.97
2017-09-27T12:18:37.707Z,23.75
2017-09-27T12:19:50.930Z,23.87
2017-09-27T12:21:04.145Z,24.16
2017-09-27T12:22:16.829Z,24.13
2017-09-27T12:23:29.500Z,24.06
2017-09-27T12:24:42.685Z,24.16
2017-09-27T12:25:55.883Z,24.22
2017-09-27T12:27:07.527Z,24.34
2017-09-27T12:28:20.212Z,24.42
2017-09-27T12:29:33.405Z,24.61
2017-09-27T12:30:46.607Z,24.78
2017-09-27T12:31:57.725Z,25.32
2017-09-27T12:33:09.899Z,25.18
2017-09-27T12:34:23.125Z,25.14
2017-09-27T12:35:35.827Z,25.47
2017-09-27T12:36:47.973Z,25.73
2017-09-27T12:38:01.162Z,25.85
2017-09-27T12:39:13.343Z,25.55
2017-09-27T12:40:26.539Z,25.6
2017-09-27T12:41:39.197Z,25.83
2017-09-27T12:42:52.091Z,26.26
2017-09-27T12:44:04.806Z,26.65
2017-09-27T12:45:17.469Z,26.99
2017-09-27T12:46:30.181Z,26.85
2017-09-27T12:47:43.389Z,26.48
2017-09-27T12:48:55.552Z,26.09
2017-09-27T12:50:06.699Z,25.73
2017-09-27T12:51:19.419Z,25.42
2017-09-27T12:52:32.599Z,25.57
2017-09-27T12:53:45.790Z,25.51
2017-09-27T12:54:59.140Z,25.47
2017-09-27T12:56:11.328Z,25.43
2017-09-27T12:57:24.542Z,25.57
2017-09-27T12:58:37.740Z,25.8
2017-09-27T12:59:50.938Z,25.83
2017-09-27T13:01:03.107Z,25.67
2017-09-27T13:02:16.298Z,25.65
2017-09-27T13:03:29.026Z,25.97
2017-09-27T13:04:41.208Z,26.09
2017-09-27T13:05:53.879Z,26.37
2017-09-27T13:07:07.111Z,26.75
2017-09-27T13:08:19.298Z,27.1
2017-09-27T13:09:32.553Z,27.22
2017-09-27T13:10:45.215Z,26.99
2017-09-27T13:11:57.955Z,26.84
2017-09-27T13:13:10.687Z,27.03
2017-09-27T13:14:23.351Z,26.94
2017-09-27T13:15:36.039Z,27.28
2017-09-27T13:16:48.210Z,27.59
2017-09-27T13:18:01.400Z,27.5
2017-09-27T13:19:14.114Z,27.06
2017-09-27T13:20:27.371Z,26.75
2017-09-27T13:21:40.656Z,26.87
2017-09-27T13:22:53.348Z,26.88
2017-09-27T13:24:07.121Z,27.12
2017-09-27T13:25:20.411Z,27.19
2017-09-27T13:26:32.596Z,27.12
2017-09-27T13:27:45.171Z,26.69
2017-09-27T13:28:57.338Z,26.62
2017-09-27T13:30:10.041Z,26.89
2017-09-27T13:31:22.728Z,27.02
2017-09-27T13:32:35.016Z,27.51
2017-09-27T13:33:48.231Z,27.55
2017-09-27T13:35:00.398Z,27.36
2017-09-27T13:36:13.680Z,27.07
2017-09-27T13:37:26.462Z,26.97
2017-09-27T13:38:39.681Z,26.95
2017-09-27T13:39:52.359Z,27.13
2017-09-27T13:41:03.979Z,27.21
2017-09-27T13:42:16.138Z,27.31
2017-09-27T13:58:46.169Z,27.5
2017-09-27T13:59:58.894Z,27.46
2017-09-27T14:01:11.575Z,27.69
2017-09-27T14:02:24.171Z,28.22
2017-09-27T14:03:37.402Z,28.54
2017-09-27T14:04:50.627Z,28.3
2017-09-27T14:06:03.844Z,28.07
2017-09-27T14:07:16.526Z,27.84
2017-09-27T14:08:29.823Z,27.82
2017-09-27T14:09:42.627Z,28.04
2017-09-27T14:10:54.273Z,28.11
2017-09-27T14:12:06.459Z,28.29
2017-09-27T14:13:19.182Z,28.49
2017-09-27T14:14:31.355Z,28.68
2017-09-27T14:15:44.075Z,29.24
2017-09-27T14:16:56.779Z,29.48
2017-09-27T14:18:10.036Z,29.33
2017-09-27T14:19:22.739Z,29.12
2017-09-27T14:20:35.433Z,28.93
2017-09-27T14:21:48.205Z,29.21
2017-09-27T14:23:00.893Z,29.36
2017-09-27T14:24:13.573Z,29.08
2017-09-27T14:25:26.825Z,29.15
2017-09-27T14:26:40.043Z,29.06
2017-09-27T14:27:52.738Z,29.09
2017-09-27T14:29:04.395Z,29.21
2017-09-27T14:30:17.061Z,29.49
2017-09-27T14:31:30.241Z,29.68
2017-09-27T14:32:43.005Z,29.86
2017-09-27T14:33:55.717Z,29.55
2017-09-27T14:35:08.432Z,29.15
2017-09-27T14:36:21.621Z,29.18
2017-09-27T14:37:34.334Z,29.52
2017-09-27T14:38:48.167Z,29.14
2017-09-27T14:40:00.366Z,29.16
2017-09-27T14:41:12.530Z,29.41
2017-09-27T14:42:25.740Z,29.48
2017-09-27T14:43:38.496Z,29.21
2017-09-27T14:44:51.200Z,29.04
2017-09-27T14:46:02.878Z,29.34
2017-09-27T14:47:16.106Z,29.27
2017-09-27T14:48:28.831Z,29.31
2017-09-27T14:49:41.557Z,29.19
2017-09-27T14:50:54.763Z,29.6
2017-09-27T14:52:07.435Z,29.74
2017-09-27T14:57:09.889Z,29.64
2017-09-27T14:58:23.409Z,30.19
2017-09-27T14:59:36.521Z,30.73
2017-09-27T15:00:49.768Z,30.92
2017-09-27T15:02:01.758Z,30.62
2017-09-27T15:03:15.113Z,30.04
2017-09-27T15:04:27.829Z,29.79
2017-09-27T15:05:40.559Z,29.79
2017-09-27T15:06:53.311Z,29.79
2017-09-27T15:08:05.528Z,29.89
2017-09-27T15:09:17.704Z,29.85
2017-09-27T15:10:30.390Z,29.55
2017-09-27T15:11:43.618Z,29.31
2017-09-27T15:12:55.808Z,29.16
2017-09-27T15:14:08.516Z,29.31
2017-09-27T15:15:20.734Z,29.33
2017-09-27T15:16:33.943Z,29.48
2017-09-27T15:17:47.802Z,29.51
2017-09-27T15:19:00.511Z,29.33
2017-09-27T15:20:13.222Z,29.46
2017-09-27T15:21:25.941Z,29.57
2017-09-27T15:22:38.648Z,29.45
2017-09-27T15:23:51.916Z,29.67
2017-09-27T15:25:05.183Z,29.94
2017-09-27T15:26:17.395Z,29.65
2017-09-27T15:27:30.658Z,29.68
2017-09-27T15:28:43.906Z,29.73
2017-09-27T15:29:56.593Z,30.07
2017-09-27T15:31:09.319Z,30.43
2017-09-27T15:32:22.053Z,30.32
2017-09-27T15:33:34.276Z,30.02
2017-09-27T15:34:46.465Z,30.37
2017-09-27T15:35:59.696Z,30.1
2017-09-27T15:37:12.925Z,30.29
2017-09-27T15:38:25.646Z,30.23
2017-09-27T15:39:37.320Z,30.49
2017-09-27T15:40:50.511Z,30.39
2017-09-27T15:42:01.654Z,30.16
2017-09-27T15:43:14.336Z,29.89
2017-09-27T15:44:27.565Z,29.6
2017-09-27T15:45:40.309Z,29.49
2017-09-27T15:46:53.010Z,29.78
2017-09-27T15:48:06.569Z,30.02
2017-09-27T15:49:20.428Z,29.95
2017-09-27T15:50:33.154Z,30.17
2017-09-27T15:51:46.358Z,30.86
2017-09-27T15:52:59.600Z,30.43
2017-09-27T15:54:12.810Z,30.34
2017-09-27T15:55:25.507Z,29.82
2017-09-27T15:56:38.261Z,29.86
2017-09-27T15:57:50.487Z,29.9
2017-09-27T15:59:03.748Z,29.92
2017-09-27T16:00:15.927Z,30.15
2017-09-27T16:01:28.648Z,29.92
2017-09-27T16:02:40.824Z,30.49
2017-09-27T16:03:53.019Z,30.67
2017-09-27T16:05:05.240Z,30.73
2017-09-27T16:06:18.498Z,30.73
2017-09-27T16:07:30.710Z,30.51
2017-09-27T16:08:43.966Z,30.72
2017-09-27T16:09:57.833Z,31.2
2017-09-27T16:11:10.574Z,31.32
2017-09-27T16:12:21.728Z,31.44
2017-09-27T16:13:33.920Z,31.13
2017-09-27T16:14:46.632Z,31.34
2017-09-27T16:15:58.815Z,31.57
2017-09-27T16:17:11.034Z,31.72
2017-09-27T16:18:24.270Z,31.17
2017-09-27T16:19:37.553Z,31.65
2017-09-27T16:20:50.247Z,31.29
2017-09-27T16:22:02.988Z,30.92
2017-09-27T16:23:15.202Z,31.14
2017-09-27T16:24:28.507Z,31.56
2017-09-27T16:25:41.750Z,31.5
2017-09-27T16:26:54.479Z,31.76
2017-09-27T16:28:07.729Z,32.06
2017-09-27T16:29:19.934Z,32.11
2017-09-27T16:30:33.743Z,31.47
2017-09-27T16:31:45.867Z,31.1
2017-09-27T16:32:59.761Z,31.51
2017-09-27T16:34:11.963Z,31.92
2017-09-27T16:35:24.165Z,32.11